sensor_id;sensor_type;location;lat;lon;timestamp;P1;durP1;ratioP1;P2;durP2;ratioP2
17844;SDS011;9047;53.486;10.218;2023-12-20T00:01:55;17.63;;;2.25;;
17844;SDS011;9047;53.486;10.218;2023-12-20T00:04:29;14.68;;;2.40;;
17844;SDS011;9047;53.486;10.218;2023-12-20T00:06:58;18.63;;;2.78;;
17844;SDS011;9047;53.486;10.218;2023-12-20T00:09:51;17.30;;;2.22;;
17844;SDS011;9047;53.486;10.218;2023-12-20T00:12:21;17.55;;;2.65;;
17844;SDS011;9047;53.486;10.218;2023-12-20T00:14:51;16.95;;;2.47;;
17844;SDS011;9047;53.486;10.218;2023-12-20T00:17:27;15.52;;;2.33;;
17844;SDS011;9047;53.486;10.218;2023-12-20T00:20:00;15.38;;;2.88;;
17844;SDS011;9047;53.486;10.218;2023-12-20T00:22:28;13.20;;;2.00;;
17844;SDS011;9047;53.486;10.218;2023-12-20T00:28:01;16.25;;;2.22;;
17844;SDS011;9047;53.486;10.218;2023-12-20T00:30:34;18.17;;;2.05;;
17844;SDS011;9047;53.486;10.218;2023-12-20T00:33:16;14.43;;;2.22;;
17844;SDS011;9047;53.486;10.218;2023-12-20T00:35:48;17.63;;;2.42;;
17844;SDS011;9047;53.486;10.218;2023-12-20T00:38:22;12.43;;;2.00;;
17844;SDS011;9047;53.486;10.218;2023-12-20T00:41:11;14.70;;;2.10;;
17844;SDS011;9047;53.486;10.218;2023-12-20T00:43:39;13.55;;;2.30;;
17844;SDS011;9047;53.486;10.218;2023-12-20T00:46:11;14.93;;;2.25;;
17844;SDS011;9047;53.486;10.218;2023-12-20T00:48:53;17.13;;;2.20;;
17844;SDS011;9047;53.486;10.218;2023-12-20T00:51:35;17.63;;;2.50;;
17844;SDS011;9047;53.486;10.218;2023-12-20T00:54:08;21.83;;;3.00;;
17844;SDS011;9047;53.486;10.218;2023-12-20T00:56:49;17.88;;;2.20;;
17844;SDS011;9047;53.486;10.218;2023-12-20T00:59:31;18.45;;;2.28;;
17844;SDS011;9047;53.486;10.218;2023-12-20T01:02:01;24.58;;;3.00;;
17844;SDS011;9047;53.486;10.218;2023-12-20T01:04:31;22.45;;;2.40;;
17844;SDS011;9047;53.486;10.218;2023-12-20T01:07:04;17.98;;;2.00;;
17844;SDS011;9047;53.486;10.218;2023-12-20T01:09:36;19.52;;;2.65;;
17844;SDS011;9047;53.486;10.218;2023-12-20T01:12:09;22.70;;;2.60;;
17844;SDS011;9047;53.486;10.218;2023-12-20T01:14:40;30.40;;;3.08;;
17844;SDS011;9047;53.486;10.218;2023-12-20T01:17:07;19.13;;;2.45;;
17844;SDS011;9047;53.486;10.218;2023-12-20T01:19:34;21.70;;;2.38;;
17844;SDS011;9047;53.486;10.218;2023-12-20T01:22:04;20.90;;;2.40;;
17844;SDS011;9047;53.486;10.218;2023-12-20T01:24:32;21.42;;;2.50;;
17844;SDS011;9047;53.486;10.218;2023-12-20T01:26:59;16.48;;;2.35;;
17844;SDS011;9047;53.486;10.218;2023-12-20T01:29:32;20.85;;;2.95;;
17844;SDS011;9047;53.486;10.218;2023-12-20T01:31:59;18.02;;;2.53;;
17844;SDS011;9047;53.486;10.218;2023-12-20T01:34:34;19.13;;;2.40;;
17844;SDS011;9047;53.486;10.218;2023-12-20T01:37:01;16.75;;;2.33;;
17844;SDS011;9047;53.486;10.218;2023-12-20T01:39:29;14.77;;;2.13;;
17844;SDS011;9047;53.486;10.218;2023-12-20T01:41:56;11.93;;;2.05;;
17844;SDS011;9047;53.486;10.218;2023-12-20T01:44:23;12.30;;;2.38;;
17844;SDS011;9047;53.486;10.218;2023-12-20T01:46:53;14.35;;;2.13;;
17844;SDS011;9047;53.486;10.218;2023-12-20T01:49:20;17.17;;;2.33;;
17844;SDS011;9047;53.486;10.218;2023-12-20T01:51:48;21.55;;;2.50;;
17844;SDS011;9047;53.486;10.218;2023-12-20T01:54:16;20.65;;;2.40;;
17844;SDS011;9047;53.486;10.218;2023-12-20T01:56:45;16.92;;;2.40;;
17844;SDS011;9047;53.486;10.218;2023-12-20T01:59:13;19.05;;;3.03;;
17844;SDS011;9047;53.486;10.218;2023-12-20T02:01:41;20.20;;;2.20;;
17844;SDS011;9047;53.486;10.218;2023-12-20T02:04:10;17.17;;;2.15;;
17844;SDS011;9047;53.486;10.218;2023-12-20T02:06:38;20.88;;;2.60;;
17844;SDS011;9047;53.486;10.218;2023-12-20T02:09:06;13.60;;;2.00;;
17844;SDS011;9047;53.486;10.218;2023-12-20T02:11:34;14.57;;;2.28;;
17844;SDS011;9047;53.486;10.218;2023-12-20T02:14:02;21.85;;;2.40;;
17844;SDS011;9047;53.486;10.218;2023-12-20T02:16:29;17.85;;;2.58;;
17844;SDS011;9047;53.486;10.218;2023-12-20T02:18:56;24.08;;;2.63;;
17844;SDS011;9047;53.486;10.218;2023-12-20T02:21:31;17.67;;;2.47;;
17844;SDS011;9047;53.486;10.218;2023-12-20T02:23:59;18.75;;;2.40;;
17844;SDS011;9047;53.486;10.218;2023-12-20T02:26:29;13.52;;;2.70;;
17844;SDS011;9047;53.486;10.218;2023-12-20T02:28:59;19.13;;;2.63;;
17844;SDS011;9047;53.486;10.218;2023-12-20T02:31:26;22.08;;;3.03;;
17844;SDS011;9047;53.486;10.218;2023-12-20T02:33:54;17.80;;;3.55;;
17844;SDS011;9047;53.486;10.218;2023-12-20T02:36:21;15.80;;;2.72;;
17844;SDS011;9047;53.486;10.218;2023-12-20T02:38:49;21.08;;;3.75;;
17844;SDS011;9047;53.486;10.218;2023-12-20T02:41:16;15.02;;;2.78;;
17844;SDS011;9047;53.486;10.218;2023-12-20T02:43:46;20.67;;;3.03;;
17844;SDS011;9047;53.486;10.218;2023-12-20T02:46:16;22.85;;;3.63;;
17844;SDS011;9047;53.486;10.218;2023-12-20T02:48:44;26.02;;;3.58;;
17844;SDS011;9047;53.486;10.218;2023-12-20T02:51:12;16.70;;;3.05;;
17844;SDS011;9047;53.486;10.218;2023-12-20T02:53:39;17.20;;;3.40;;
17844;SDS011;9047;53.486;10.218;2023-12-20T02:56:11;17.77;;;3.03;;
17844;SDS011;9047;53.486;10.218;2023-12-20T02:58:41;26.00;;;3.97;;
17844;SDS011;9047;53.486;10.218;2023-12-20T03:01:08;15.75;;;3.20;;
17844;SDS011;9047;53.486;10.218;2023-12-20T03:03:37;14.05;;;2.83;;
17844;SDS011;9047;53.486;10.218;2023-12-20T03:06:06;15.57;;;3.13;;
17844;SDS011;9047;53.486;10.218;2023-12-20T03:08:34;18.45;;;3.35;;
17844;SDS011;9047;53.486;10.218;2023-12-20T03:11:00;20.50;;;3.30;;
17844;SDS011;9047;53.486;10.218;2023-12-20T03:13:31;14.55;;;2.42;;
17844;SDS011;9047;53.486;10.218;2023-12-20T03:15:58;17.63;;;2.85;;
17844;SDS011;9047;53.486;10.218;2023-12-20T03:18:25;20.02;;;3.50;;
17844;SDS011;9047;53.486;10.218;2023-12-20T03:20:55;19.60;;;3.28;;
17844;SDS011;9047;53.486;10.218;2023-12-20T03:23:24;16.60;;;2.90;;
17844;SDS011;9047;53.486;10.218;2023-12-20T03:25:52;19.33;;;2.85;;
17844;SDS011;9047;53.486;10.218;2023-12-20T03:28:20;12.45;;;2.78;;
17844;SDS011;9047;53.486;10.218;2023-12-20T03:30:49;12.57;;;2.53;;
17844;SDS011;9047;53.486;10.218;2023-12-20T03:33:16;11.63;;;2.67;;
17844;SDS011;9047;53.486;10.218;2023-12-20T03:35:45;18.40;;;2.47;;
17844;SDS011;9047;53.486;10.218;2023-12-20T03:38:12;19.05;;;2.72;;
17844;SDS011;9047;53.486;10.218;2023-12-20T03:40:39;18.85;;;3.33;;
17844;SDS011;9047;53.486;10.218;2023-12-20T03:43:06;13.15;;;2.83;;
17844;SDS011;9047;53.486;10.218;2023-12-20T03:45:33;20.08;;;2.83;;
17844;SDS011;9047;53.486;10.218;2023-12-20T03:48:04;13.10;;;2.45;;
17844;SDS011;9047;53.486;10.218;2023-12-20T03:50:32;13.25;;;2.22;;
17844;SDS011;9047;53.486;10.218;2023-12-20T03:52:59;13.23;;;2.42;;
17844;SDS011;9047;53.486;10.218;2023-12-20T03:55:26;13.52;;;2.58;;
17844;SDS011;9047;53.486;10.218;2023-12-20T03:57:53;11.73;;;1.98;;
17844;SDS011;9047;53.486;10.218;2023-12-20T04:00:20;12.02;;;2.33;;
17844;SDS011;9047;53.486;10.218;2023-12-20T04:02:48;14.25;;;2.40;;
17844;SDS011;9047;53.486;10.218;2023-12-20T04:05:16;11.38;;;2.35;;
17844;SDS011;9047;53.486;10.218;2023-12-20T04:07:43;9.88;;;1.90;;
17844;SDS011;9047;53.486;10.218;2023-12-20T04:10:10;13.20;;;2.08;;
17844;SDS011;9047;53.486;10.218;2023-12-20T04:12:37;10.25;;;2.17;;
17844;SDS011;9047;53.486;10.218;2023-12-20T04:15:04;13.63;;;2.13;;
17844;SDS011;9047;53.486;10.218;2023-12-20T04:17:37;10.85;;;2.60;;
17844;SDS011;9047;53.486;10.218;2023-12-20T04:20:05;13.90;;;2.85;;
17844;SDS011;9047;53.486;10.218;2023-12-20T04:22:34;10.00;;;2.50;;
17844;SDS011;9047;53.486;10.218;2023-12-20T04:25:01;15.60;;;2.83;;
17844;SDS011;9047;53.486;10.218;2023-12-20T04:27:29;18.45;;;3.45;;
17844;SDS011;9047;53.486;10.218;2023-12-20T04:29:59;12.23;;;2.92;;
17844;SDS011;9047;53.486;10.218;2023-12-20T04:32:29;15.98;;;3.35;;
17844;SDS011;9047;53.486;10.218;2023-12-20T04:34:56;12.73;;;3.30;;
17844;SDS011;9047;53.486;10.218;2023-12-20T04:37:23;12.68;;;3.67;;
17844;SDS011;9047;53.486;10.218;2023-12-20T04:39:52;17.73;;;4.05;;
17844;SDS011;9047;53.486;10.218;2023-12-20T04:42:20;16.48;;;4.22;;
17844;SDS011;9047;53.486;10.218;2023-12-20T04:44:47;13.00;;;4.03;;
17844;SDS011;9047;53.486;10.218;2023-12-20T04:47:14;15.57;;;4.38;;
17844;SDS011;9047;53.486;10.218;2023-12-20T04:49:50;11.82;;;4.38;;
17844;SDS011;9047;53.486;10.218;2023-12-20T04:52:20;19.83;;;4.80;;
17844;SDS011;9047;53.486;10.218;2023-12-20T04:54:52;18.67;;;5.70;;
17844;SDS011;9047;53.486;10.218;2023-12-20T04:57:19;13.50;;;4.57;;
17844;SDS011;9047;53.486;10.218;2023-12-20T04:59:47;17.67;;;4.63;;
17844;SDS011;9047;53.486;10.218;2023-12-20T05:02:14;18.55;;;5.45;;
17844;SDS011;9047;53.486;10.218;2023-12-20T05:04:42;16.52;;;4.40;;
17844;SDS011;9047;53.486;10.218;2023-12-20T05:07:08;15.27;;;4.30;;
17844;SDS011;9047;53.486;10.218;2023-12-20T05:09:37;18.65;;;4.40;;
17844;SDS011;9047;53.486;10.218;2023-12-20T05:12:09;16.27;;;4.20;;
17844;SDS011;9047;53.486;10.218;2023-12-20T05:14:36;16.58;;;3.83;;
17844;SDS011;9047;53.486;10.218;2023-12-20T05:17:04;13.95;;;3.58;;
17844;SDS011;9047;53.486;10.218;2023-12-20T05:19:31;16.33;;;4.18;;
17844;SDS011;9047;53.486;10.218;2023-12-20T05:22:00;15.15;;;4.32;;
17844;SDS011;9047;53.486;10.218;2023-12-20T05:24:28;16.42;;;4.40;;
17844;SDS011;9047;53.486;10.218;2023-12-20T05:26:55;17.63;;;4.38;;
17844;SDS011;9047;53.486;10.218;2023-12-20T05:29:25;16.55;;;4.97;;
17844;SDS011;9047;53.486;10.218;2023-12-20T05:31:52;13.70;;;4.25;;
17844;SDS011;9047;53.486;10.218;2023-12-20T05:34:20;17.60;;;4.57;;
17844;SDS011;9047;53.486;10.218;2023-12-20T05:36:47;9.48;;;4.03;;
17844;SDS011;9047;53.486;10.218;2023-12-20T05:39:16;15.10;;;4.82;;
17844;SDS011;9047;53.486;10.218;2023-12-20T05:41:46;13.77;;;4.82;;
17844;SDS011;9047;53.486;10.218;2023-12-20T05:44:13;17.23;;;4.72;;
17844;SDS011;9047;53.486;10.218;2023-12-20T05:46:41;14.35;;;4.07;;
17844;SDS011;9047;53.486;10.218;2023-12-20T05:49:08;13.00;;;4.18;;
17844;SDS011;9047;53.486;10.218;2023-12-20T05:51:35;16.42;;;5.70;;
17844;SDS011;9047;53.486;10.218;2023-12-20T05:54:04;14.55;;;4.90;;
17844;SDS011;9047;53.486;10.218;2023-12-20T05:56:33;15.00;;;5.30;;
17844;SDS011;9047;53.486;10.218;2023-12-20T05:59:00;11.63;;;4.28;;
17844;SDS011;9047;53.486;10.218;2023-12-20T06:01:29;17.83;;;4.53;;
17844;SDS011;9047;53.486;10.218;2023-12-20T06:03:58;16.63;;;4.43;;
17844;SDS011;9047;53.486;10.218;2023-12-20T06:06:27;18.08;;;4.43;;
17844;SDS011;9047;53.486;10.218;2023-12-20T06:08:55;17.17;;;3.67;;
17844;SDS011;9047;53.486;10.218;2023-12-20T06:11:22;18.30;;;4.10;;
17844;SDS011;9047;53.486;10.218;2023-12-20T06:13:49;14.90;;;3.90;;
17844;SDS011;9047;53.486;10.218;2023-12-20T06:16:18;14.02;;;3.85;;
17844;SDS011;9047;53.486;10.218;2023-12-20T06:18:44;15.38;;;4.28;;
17844;SDS011;9047;53.486;10.218;2023-12-20T06:21:14;14.50;;;3.50;;
17844;SDS011;9047;53.486;10.218;2023-12-20T06:23:41;13.27;;;3.50;;
17844;SDS011;9047;53.486;10.218;2023-12-20T06:26:10;14.63;;;3.95;;
17844;SDS011;9047;53.486;10.218;2023-12-20T06:28:39;13.75;;;3.67;;
17844;SDS011;9047;53.486;10.218;2023-12-20T06:31:06;14.95;;;3.58;;
17844;SDS011;9047;53.486;10.218;2023-12-20T06:33:33;14.63;;;3.20;;
17844;SDS011;9047;53.486;10.218;2023-12-20T06:36:00;20.00;;;4.00;;
17844;SDS011;9047;53.486;10.218;2023-12-20T06:38:29;13.48;;;3.17;;
17844;SDS011;9047;53.486;10.218;2023-12-20T06:40:58;15.43;;;3.53;;
17844;SDS011;9047;53.486;10.218;2023-12-20T06:43:25;14.52;;;3.08;;
17844;SDS011;9047;53.486;10.218;2023-12-20T06:45:55;11.10;;;2.92;;
17844;SDS011;9047;53.486;10.218;2023-12-20T06:48:30;14.60;;;3.45;;
17844;SDS011;9047;53.486;10.218;2023-12-20T06:51:00;11.05;;;3.78;;
17844;SDS011;9047;53.486;10.218;2023-12-20T06:53:29;13.10;;;3.20;;
17844;SDS011;9047;53.486;10.218;2023-12-20T06:55:56;16.38;;;3.25;;
17844;SDS011;9047;53.486;10.218;2023-12-20T06:58:23;14.30;;;3.45;;
17844;SDS011;9047;53.486;10.218;2023-12-20T07:00:52;19.40;;;3.60;;
17844;SDS011;9047;53.486;10.218;2023-12-20T07:03:22;14.50;;;3.00;;
17844;SDS011;9047;53.486;10.218;2023-12-20T07:05:51;12.32;;;3.00;;
17844;SDS011;9047;53.486;10.218;2023-12-20T07:08:19;14.00;;;2.75;;
17844;SDS011;9047;53.486;10.218;2023-12-20T07:10:48;16.38;;;3.47;;
17844;SDS011;9047;53.486;10.218;2023-12-20T07:13:15;14.35;;;3.50;;
17844;SDS011;9047;53.486;10.218;2023-12-20T07:15:44;11.13;;;2.65;;
17844;SDS011;9047;53.486;10.218;2023-12-20T07:18:11;18.80;;;3.47;;
17844;SDS011;9047;53.486;10.218;2023-12-20T07:20:38;14.60;;;3.15;;
17844;SDS011;9047;53.486;10.218;2023-12-20T07:23:07;14.00;;;3.60;;
17844;SDS011;9047;53.486;10.218;2023-12-20T07:25:36;12.35;;;3.10;;
17844;SDS011;9047;53.486;10.218;2023-12-20T07:28:05;14.35;;;3.45;;
17844;SDS011;9047;53.486;10.218;2023-12-20T07:30:33;14.95;;;3.90;;
17844;SDS011;9047;53.486;10.218;2023-12-20T07:33:00;14.95;;;3.47;;
17844;SDS011;9047;53.486;10.218;2023-12-20T07:35:29;16.10;;;3.38;;
17844;SDS011;9047;53.486;10.218;2023-12-20T07:37:56;18.05;;;3.60;;
17844;SDS011;9047;53.486;10.218;2023-12-20T07:40:24;14.07;;;3.33;;
17844;SDS011;9047;53.486;10.218;2023-12-20T07:42:52;15.63;;;3.53;;
17844;SDS011;9047;53.486;10.218;2023-12-20T07:45:20;17.40;;;4.05;;
17844;SDS011;9047;53.486;10.218;2023-12-20T07:47:47;18.33;;;3.55;;
17844;SDS011;9047;53.486;10.218;2023-12-20T07:50:15;16.65;;;3.65;;
17844;SDS011;9047;53.486;10.218;2023-12-20T07:52:45;20.55;;;4.35;;
17844;SDS011;9047;53.486;10.218;2023-12-20T07:55:15;16.30;;;3.72;;
17844;SDS011;9047;53.486;10.218;2023-12-20T07:57:43;15.13;;;3.72;;
17844;SDS011;9047;53.486;10.218;2023-12-20T08:00:11;16.88;;;3.65;;
17844;SDS011;9047;53.486;10.218;2023-12-20T08:02:40;13.30;;;3.80;;
17844;SDS011;9047;53.486;10.218;2023-12-20T08:05:07;21.08;;;3.40;;
17844;SDS011;9047;53.486;10.218;2023-12-20T08:07:34;15.73;;;3.40;;
17844;SDS011;9047;53.486;10.218;2023-12-20T08:10:03;12.73;;;3.28;;
17844;SDS011;9047;53.486;10.218;2023-12-20T08:12:30;14.32;;;3.17;;
17844;SDS011;9047;53.486;10.218;2023-12-20T08:14:58;14.50;;;3.70;;
17844;SDS011;9047;53.486;10.218;2023-12-20T08:17:26;14.30;;;3.97;;
17844;SDS011;9047;53.486;10.218;2023-12-20T08:19:54;18.45;;;3.80;;
17844;SDS011;9047;53.486;10.218;2023-12-20T08:22:22;19.58;;;4.43;;
17844;SDS011;9047;53.486;10.218;2023-12-20T08:24:49;19.52;;;4.15;;
17844;SDS011;9047;53.486;10.218;2023-12-20T08:27:18;17.85;;;5.55;;
17844;SDS011;9047;53.486;10.218;2023-12-20T08:29:46;28.65;;;9.32;;
17844;SDS011;9047;53.486;10.218;2023-12-20T08:32:16;20.88;;;4.53;;
17844;SDS011;9047;53.486;10.218;2023-12-20T08:34:44;17.27;;;3.75;;
17844;SDS011;9047;53.486;10.218;2023-12-20T08:37:12;15.63;;;4.20;;
17844;SDS011;9047;53.486;10.218;2023-12-20T08:39:40;15.88;;;3.92;;
17844;SDS011;9047;53.486;10.218;2023-12-20T08:42:09;17.23;;;3.60;;
17844;SDS011;9047;53.486;10.218;2023-12-20T08:44:40;15.43;;;3.72;;
17844;SDS011;9047;53.486;10.218;2023-12-20T08:47:07;17.15;;;3.67;;
17844;SDS011;9047;53.486;10.218;2023-12-20T08:49:38;16.65;;;3.55;;
17844;SDS011;9047;53.486;10.218;2023-12-20T08:52:05;17.77;;;3.90;;
17844;SDS011;9047;53.486;10.218;2023-12-20T08:54:36;17.08;;;3.95;;
17844;SDS011;9047;53.486;10.218;2023-12-20T08:57:04;17.35;;;3.47;;
17844;SDS011;9047;53.486;10.218;2023-12-20T08:59:31;11.77;;;2.88;;
17844;SDS011;9047;53.486;10.218;2023-12-20T09:01:58;17.55;;;3.17;;
17844;SDS011;9047;53.486;10.218;2023-12-20T09:04:25;12.77;;;2.85;;
17844;SDS011;9047;53.486;10.218;2023-12-20T09:06:54;13.40;;;2.95;;
17844;SDS011;9047;53.486;10.218;2023-12-20T09:09:21;14.55;;;3.38;;
17844;SDS011;9047;53.486;10.218;2023-12-20T09:11:51;14.60;;;3.30;;
17844;SDS011;9047;53.486;10.218;2023-12-20T09:14:18;13.98;;;2.90;;
17844;SDS011;9047;53.486;10.218;2023-12-20T09:16:44;12.15;;;2.65;;
17844;SDS011;9047;53.486;10.218;2023-12-20T09:19:16;11.63;;;2.50;;
17844;SDS011;9047;53.486;10.218;2023-12-20T09:21:43;11.23;;;2.30;;
17844;SDS011;9047;53.486;10.218;2023-12-20T09:24:10;13.40;;;2.47;;
17844;SDS011;9047;53.486;10.218;2023-12-20T09:26:37;16.23;;;2.38;;
17844;SDS011;9047;53.486;10.218;2023-12-20T09:29:08;8.30;;;1.83;;
17844;SDS011;9047;53.486;10.218;2023-12-20T09:31:40;10.25;;;2.00;;
17844;SDS011;9047;53.486;10.218;2023-12-20T09:34:08;7.70;;;1.58;;
17844;SDS011;9047;53.486;10.218;2023-12-20T09:36:40;8.30;;;1.65;;
17844;SDS011;9047;53.486;10.218;2023-12-20T09:39:14;6.97;;;1.42;;
17844;SDS011;9047;53.486;10.218;2023-12-20T09:41:44;9.07;;;1.85;;
17844;SDS011;9047;53.486;10.218;2023-12-20T09:44:14;5.80;;;1.40;;
17844;SDS011;9047;53.486;10.218;2023-12-20T09:46:45;8.63;;;1.77;;
17844;SDS011;9047;53.486;10.218;2023-12-20T09:49:16;4.47;;;1.30;;
17844;SDS011;9047;53.486;10.218;2023-12-20T09:51:45;4.72;;;1.10;;
17844;SDS011;9047;53.486;10.218;2023-12-20T09:54:14;7.35;;;1.17;;
17844;SDS011;9047;53.486;10.218;2023-12-20T09:56:41;4.22;;;1.08;;
17844;SDS011;9047;53.486;10.218;2023-12-20T09:59:09;2.60;;;1.00;;
17844;SDS011;9047;53.486;10.218;2023-12-20T10:01:38;5.00;;;0.90;;
17844;SDS011;9047;53.486;10.218;2023-12-20T10:04:07;4.97;;;1.00;;
17844;SDS011;9047;53.486;10.218;2023-12-20T10:06:37;3.85;;;0.90;;
17844;SDS011;9047;53.486;10.218;2023-12-20T10:09:06;2.25;;;0.80;;
17844;SDS011;9047;53.486;10.218;2023-12-20T10:11:34;4.45;;;1.00;;
17844;SDS011;9047;53.486;10.218;2023-12-20T10:14:03;1.50;;;0.80;;
17844;SDS011;9047;53.486;10.218;2023-12-20T10:16:30;3.25;;;1.17;;
17844;SDS011;9047;53.486;10.218;2023-12-20T10:19:00;2.40;;;0.77;;
17844;SDS011;9047;53.486;10.218;2023-12-20T10:21:28;4.53;;;1.00;;
17844;SDS011;9047;53.486;10.218;2023-12-20T10:23:56;1.75;;;0.80;;
17844;SDS011;9047;53.486;10.218;2023-12-20T10:26:24;3.47;;;1.00;;
17844;SDS011;9047;53.486;10.218;2023-12-20T10:28:53;2.47;;;0.90;;
17844;SDS011;9047;53.486;10.218;2023-12-20T10:31:28;3.92;;;0.80;;
17844;SDS011;9047;53.486;10.218;2023-12-20T10:33:56;1.92;;;0.80;;
17844;SDS011;9047;53.486;10.218;2023-12-20T10:36:29;3.42;;;1.20;;
17844;SDS011;9047;53.486;10.218;2023-12-20T10:38:57;1.33;;;0.80;;
17844;SDS011;9047;53.486;10.218;2023-12-20T10:41:25;4.03;;;0.95;;
17844;SDS011;9047;53.486;10.218;2023-12-20T10:43:56;4.00;;;0.95;;
17844;SDS011;9047;53.486;10.218;2023-12-20T10:46:24;3.90;;;0.93;;
17844;SDS011;9047;53.486;10.218;2023-12-20T10:48:53;5.22;;;0.82;;
17844;SDS011;9047;53.486;10.218;2023-12-20T10:51:21;4.93;;;0.90;;
17844;SDS011;9047;53.486;10.218;2023-12-20T10:53:53;2.80;;;0.85;;
17844;SDS011;9047;53.486;10.218;2023-12-20T10:56:21;4.70;;;0.95;;
17844;SDS011;9047;53.486;10.218;2023-12-20T10:58:52;4.38;;;1.27;;
17844;SDS011;9047;53.486;10.218;2023-12-20T11:01:23;6.45;;;1.17;;
17844;SDS011;9047;53.486;10.218;2023-12-20T11:03:51;5.72;;;1.38;;
17844;SDS011;9047;53.486;10.218;2023-12-20T11:06:24;4.80;;;1.00;;
17844;SDS011;9047;53.486;10.218;2023-12-20T11:08:59;4.68;;;1.17;;
17844;SDS011;9047;53.486;10.218;2023-12-20T11:12:01;6.63;;;1.20;;
17844;SDS011;9047;53.486;10.218;2023-12-20T11:14:38;3.30;;;0.90;;
17844;SDS011;9047;53.486;10.218;2023-12-20T11:17:11;8.65;;;1.30;;
17844;SDS011;9047;53.486;10.218;2023-12-20T11:19:43;7.85;;;1.10;;
17844;SDS011;9047;53.486;10.218;2023-12-20T11:22:33;6.65;;;1.30;;
17844;SDS011;9047;53.486;10.218;2023-12-20T11:25:04;5.65;;;1.52;;
17844;SDS011;9047;53.486;10.218;2023-12-20T11:27:36;5.10;;;1.05;;
17844;SDS011;9047;53.486;10.218;2023-12-20T11:30:07;9.55;;;1.20;;
17844;SDS011;9047;53.486;10.218;2023-12-20T11:32:36;5.47;;;1.15;;
17844;SDS011;9047;53.486;10.218;2023-12-20T11:35:18;7.20;;;1.10;;
17844;SDS011;9047;53.486;10.218;2023-12-20T11:37:48;8.90;;;1.13;;
17844;SDS011;9047;53.486;10.218;2023-12-20T11:40:18;6.07;;;1.48;;
17844;SDS011;9047;53.486;10.218;2023-12-20T11:42:48;5.15;;;1.17;;
17844;SDS011;9047;53.486;10.218;2023-12-20T11:45:18;7.45;;;1.63;;
17844;SDS011;9047;53.486;10.218;2023-12-20T11:47:47;7.85;;;1.40;;
17844;SDS011;9047;53.486;10.218;2023-12-20T11:50:16;6.00;;;1.52;;
17844;SDS011;9047;53.486;10.218;2023-12-20T11:52:43;12.32;;;1.90;;
17844;SDS011;9047;53.486;10.218;2023-12-20T11:55:10;9.30;;;2.00;;
17844;SDS011;9047;53.486;10.218;2023-12-20T11:57:41;11.32;;;2.28;;
17844;SDS011;9047;53.486;10.218;2023-12-20T12:00:10;8.10;;;1.70;;
17844;SDS011;9047;53.486;10.218;2023-12-20T12:02:39;11.70;;;1.80;;
17844;SDS011;9047;53.486;10.218;2023-12-20T12:05:07;9.50;;;1.70;;
17844;SDS011;9047;53.486;10.218;2023-12-20T12:07:35;9.27;;;2.05;;
17844;SDS011;9047;53.486;10.218;2023-12-20T12:10:04;9.65;;;1.80;;
17844;SDS011;9047;53.486;10.218;2023-12-20T12:12:34;13.88;;;2.13;;
17844;SDS011;9047;53.486;10.218;2023-12-20T12:15:03;12.20;;;2.08;;
17844;SDS011;9047;53.486;10.218;2023-12-20T12:17:34;13.52;;;2.40;;
17844;SDS011;9047;53.486;10.218;2023-12-20T12:20:02;15.15;;;2.22;;
17844;SDS011;9047;53.486;10.218;2023-12-20T12:22:30;11.63;;;2.47;;
17844;SDS011;9047;53.486;10.218;2023-12-20T12:25:09;12.65;;;2.45;;
17844;SDS011;9047;53.486;10.218;2023-12-20T12:27:39;13.73;;;2.03;;
17844;SDS011;9047;53.486;10.218;2023-12-20T12:30:15;10.48;;;2.58;;
17844;SDS011;9047;53.486;10.218;2023-12-20T12:32:46;12.95;;;2.08;;
17844;SDS011;9047;53.486;10.218;2023-12-20T12:35:15;14.35;;;2.60;;
17844;SDS011;9047;53.486;10.218;2023-12-20T12:37:49;10.40;;;2.22;;
17844;SDS011;9047;53.486;10.218;2023-12-20T12:40:34;13.02;;;2.20;;
17844;SDS011;9047;53.486;10.218;2023-12-20T12:43:05;12.80;;;2.28;;
17844;SDS011;9047;53.486;10.218;2023-12-20T12:48:42;10.93;;;2.28;;
17844;SDS011;9047;53.486;10.218;2023-12-20T12:51:11;13.40;;;2.08;;
17844;SDS011;9047;53.486;10.218;2023-12-20T12:53:39;14.93;;;2.47;;
17844;SDS011;9047;53.486;10.218;2023-12-20T12:56:07;11.48;;;2.45;;
17844;SDS011;9047;53.486;10.218;2023-12-20T12:58:35;13.18;;;2.83;;
17844;SDS011;9047;53.486;10.218;2023-12-20T13:01:03;14.13;;;2.50;;
17844;SDS011;9047;53.486;10.218;2023-12-20T13:03:31;11.35;;;2.17;;
17844;SDS011;9047;53.486;10.218;2023-12-20T13:06:02;10.30;;;2.35;;
17844;SDS011;9047;53.486;10.218;2023-12-20T13:08:33;12.02;;;2.20;;
17844;SDS011;9047;53.486;10.218;2023-12-20T13:11:03;11.05;;;2.00;;
17844;SDS011;9047;53.486;10.218;2023-12-20T13:13:31;13.27;;;2.20;;
17844;SDS011;9047;53.486;10.218;2023-12-20T13:15:58;11.10;;;2.28;;
17844;SDS011;9047;53.486;10.218;2023-12-20T13:18:28;12.80;;;2.63;;
17844;SDS011;9047;53.486;10.218;2023-12-20T13:20:55;15.20;;;2.20;;
17844;SDS011;9047;53.486;10.218;2023-12-20T13:26:15;15.93;;;3.33;;
17844;SDS011;9047;53.486;10.218;2023-12-20T13:28:43;13.40;;;2.13;;
17844;SDS011;9047;53.486;10.218;2023-12-20T13:31:11;12.27;;;2.22;;
17844;SDS011;9047;53.486;10.218;2023-12-20T13:33:38;13.15;;;2.42;;
17844;SDS011;9047;53.486;10.218;2023-12-20T13:36:07;11.68;;;2.38;;
17844;SDS011;9047;53.486;10.218;2023-12-20T13:38:40;12.27;;;2.35;;
17844;SDS011;9047;53.486;10.218;2023-12-20T13:41:07;19.70;;;2.58;;
17844;SDS011;9047;53.486;10.218;2023-12-20T13:43:42;15.07;;;2.60;;
17844;SDS011;9047;53.486;10.218;2023-12-20T13:46:15;15.82;;;2.83;;
17844;SDS011;9047;53.486;10.218;2023-12-20T13:48:43;16.92;;;2.83;;
17844;SDS011;9047;53.486;10.218;2023-12-20T13:51:10;13.05;;;2.50;;
17844;SDS011;9047;53.486;10.218;2023-12-20T13:53:38;15.05;;;3.08;;
17844;SDS011;9047;53.486;10.218;2023-12-20T13:56:12;18.92;;;3.28;;
17844;SDS011;9047;53.486;10.218;2023-12-20T13:58:39;13.85;;;3.05;;
17844;SDS011;9047;53.486;10.218;2023-12-20T14:03:37;21.67;;;3.45;;
17844;SDS011;9047;53.486;10.218;2023-12-20T14:06:06;25.33;;;3.95;;
17844;SDS011;9047;53.486;10.218;2023-12-20T14:08:34;18.27;;;3.15;;
17844;SDS011;9047;53.486;10.218;2023-12-20T14:11:05;17.92;;;3.10;;
17844;SDS011;9047;53.486;10.218;2023-12-20T14:13:32;22.58;;;3.30;;
17844;SDS011;9047;53.486;10.218;2023-12-20T14:16:04;17.25;;;3.60;;
17844;SDS011;9047;53.486;10.218;2023-12-20T14:18:31;26.83;;;3.85;;
17844;SDS011;9047;53.486;10.218;2023-12-20T14:20:58;27.80;;;3.83;;
17844;SDS011;9047;53.486;10.218;2023-12-20T14:23:25;18.83;;;3.10;;
17844;SDS011;9047;53.486;10.218;2023-12-20T14:25:52;19.85;;;3.60;;
17844;SDS011;9047;53.486;10.218;2023-12-20T14:28:22;24.92;;;3.58;;
17844;SDS011;9047;53.486;10.218;2023-12-20T14:30:49;25.30;;;3.60;;
17844;SDS011;9047;53.486;10.218;2023-12-20T14:33:21;21.17;;;3.50;;
17844;SDS011;9047;53.486;10.218;2023-12-20T14:35:48;19.77;;;3.88;;
17844;SDS011;9047;53.486;10.218;2023-12-20T14:38:15;18.05;;;3.60;;
17844;SDS011;9047;53.486;10.218;2023-12-20T14:40:44;20.25;;;3.55;;
17844;SDS011;9047;53.486;10.218;2023-12-20T14:43:12;18.58;;;3.78;;
17844;SDS011;9047;53.486;10.218;2023-12-20T14:45:41;20.85;;;3.42;;
17844;SDS011;9047;53.486;10.218;2023-12-20T14:48:12;18.45;;;3.38;;
17844;SDS011;9047;53.486;10.218;2023-12-20T14:50:39;18.30;;;3.42;;
17844;SDS011;9047;53.486;10.218;2023-12-20T14:53:07;18.90;;;3.88;;
17844;SDS011;9047;53.486;10.218;2023-12-20T14:55:36;16.77;;;3.22;;
17844;SDS011;9047;53.486;10.218;2023-12-20T14:58:04;15.60;;;3.60;;
17844;SDS011;9047;53.486;10.218;2023-12-20T15:00:31;17.45;;;3.80;;